Time,TemperatureF,DewpointF,PressureIn,WindDirection,WindDirectionDegrees,WindSpeedMPH,WindSpeedGustMPH,Humidity,HourlyPrecipIn,Conditions,Clouds,dailyrainin,SoftwareType,DateUTC
2013-02-21 00:01:00,29.1,13.7,29.95,WNW,296,8.5,8.7,52,0.00,,,0.00,WUHU21623XXSP,2013-02-21 05:01:00,
2013-02-21 00:04:00,29.1,13.7,29.95,NNW,341,8.9,8.9,52,0.00,,,0.00,WUHU21623XXSP,2013-02-21 05:04:00,
2013-02-21 00:05:00,29.1,13.7,29.95,NW,323,6.3,8.9,52,0.00,,,0.00,WUHU21623XXSP,2013-02-21 05:05:00,
2013-02-21 00:11:00,29.1,13.7,29.96,NW,317,5.4,8.9,52,0.00,,,0.00,WUHU21623XXSP,2013-02-21 05:11:00,
2013-02-21 00:18:00,29.1,14.1,29.96,NW,318,5.6,5.8,53,0.00,,,0.00,WUHU21623XXSP,2013-02-21 05:18:00,
2013-02-21 00:24:00,29.1,13.7,29.96,NW,318,5.6,5.6,52,0.00,,,0.00,WUHU21623XXSP,2013-02-21 05:24:00,
2013-02-21 00:31:00,29.1,14.1,29.95,WNW,296,2.0,11.2,53,0.00,,,0.00,WUHU21623XXSP,2013-02-21 05:31:00,
2013-02-21 00:37:00,28.9,13.9,29.96,North,3,2.7,8.1,53,0.00,,,0.00,WUHU21623XXSP,2013-02-21 05:37:00,
2013-02-21 00:44:00,28.9,13.9,29.97,NNW,341,2.9,6.0,53,0.00,,,0.00,WUHU21623XXSP,2013-02-21 05:44:00,
2013-02-21 00:50:00,28.9,13.9,29.97,NW,318,2.7,4.5,53,0.00,,,0.00,WUHU21623XXSP,2013-02-21 05:50:00,
2013-02-21 00:56:00,28.9,13.9,29.95,NNW,341,5.6,9.6,53,0.00,,,0.00,WUHU21623XXSP,2013-02-21 05:56:00,
2013-02-21 01:04:00,28.8,13.8,29.96,NNW,341,6.5,6.7,53,0.00,,,0.00,WUHU21623XXSP,2013-02-21 06:04:00,
2013-02-21 01:09:00,28.6,13.6,29.95,NW,318,5.8,6.5,53,0.00,,,0.00,WUHU21623XXSP,2013-02-21 06:09:00,
2013-02-21 01:16:00,28.8,13.6,29.95,WNW,296,4.0,6.0,53,0.00,,,0.00,WUHU21623XXSP,2013-02-21 06:16:00,
2013-02-21 01:22:00,28.8,13.8,29.96,NNW,341,3.7,6.0,53,0.00,,,0.00,WUHU21623XXSP,2013-02-21 06:22:00,
2013-02-21 01:29:00,28.8,14.2,29.95,WNW,296,4.7,6.0,54,0.00,,,0.00,WUHU21623XXSP,2013-02-21 06:29:00,
2013-02-21 01:35:00,28.8,14.2,29.95,WNW,296,5.6,6.0,54,0.00,,,0.00,WUHU21623XXSP,2013-02-21 06:35:00,
2013-02-21 01:42:00,28.8,14.2,29.95,WNW,296,2.7,5.6,54,0.00,,,0.00,WUHU21623XXSP,2013-02-21 06:42:00,
2013-02-21 01:48:00,28.6,14.0,29.96,WNW,296,8.9,8.9,54,0.00,,,0.00,WUHU21623XXSP,2013-02-21 06:48:00,
2013-02-21 01:55:00,28.6,14.0,29.95,NW,318,2.9,8.9,54,0.00,,,0.00,WUHU21623XXSP,2013-02-21 06:55:00,
2013-02-21 02:01:00,28.6,14.0,29.95,NW,318,2.7,6.0,54,0.00,,,0.00,WUHU21623XXSP,2013-02-21 07:01:00,
2013-02-21 02:08:00,28.2,13.7,29.95,NW,318,2.7,4.9,54,0.00,,,0.00,WUHU21623XXSP,2013-02-21 07:08:00,
2013-02-21 02:14:00,28.4,13.9,29.95,WNW,296,3.8,4.9,54,0.00,,,0.00,WUHU21623XXSP,2013-02-21 07:14:00,
2013-02-21 02:21:00,28.6,14.0,29.94,West,273,5.8,5.8,54,0.00,,,0.00,WUHU21623XXSP,2013-02-21 07:21:00,
2013-02-21 02:27:00,28.6,14.0,29.95,NW,318,2.2,6.9,54,0.00,,,0.00,WUHU21623XXSP,2013-02-21 07:27:00,
2013-02-21 02:33:00,28.4,13.9,29.95,WNW,296,3.8,3.8,54,0.00,,,0.00,WUHU21623XXSP,2013-02-21 07:33:00,
2013-02-21 02:40:00,28.2,13.7,29.95,West,273,4.5,4.5,54,0.00,,,0.00,WUHU21623XXSP,2013-02-21 07:40:00,
2013-02-21 02:46:00,28.2,13.7,29.95,NNW,341,2.9,13.2,54,0.00,,,0.00,WUHU21623XXSP,2013-02-21 07:46:00,
2013-02-21 02:53:00,28.2,13.7,29.95,WNW,296,3.4,13.2,54,0.00,,,0.00,WUHU21623XXSP,2013-02-21 07:53:00,
2013-02-21 02:59:00,28.2,13.7,29.95,NW,318,2.7,4.7,54,0.00,,,0.00,WUHU21623XXSP,2013-02-21 07:59:00,
2013-02-21 03:06:00,28.2,13.7,29.96,West,273,4.7,4.7,54,0.00,,,0.00,WUHU21623XXSP,2013-02-21 08:06:00,
2013-02-21 03:12:00,28.2,13.7,29.96,WNW,296,7.8,15.4,54,0.00,,,0.00,WUHU21623XXSP,2013-02-21 08:12:00,
2013-02-21 03:18:00,28.0,13.7,29.95,NNW,341,5.1,15.4,54,0.00,,,0.00,WUHU21623XXSP,2013-02-21 08:18:00,
2013-02-21 03:25:00,28.0,13.5,29.96,WSW,251,2.9,9.4,54,0.00,,,0.00,WUHU21623XXSP,2013-02-21 08:25:00,
2013-02-21 03:31:00,28.0,13.5,29.95,NW,318,7.4,8.9,54,0.00,,,0.00,WUHU21623XXSP,2013-02-21 08:31:00,
2013-02-21 03:38:00,27.7,13.1,29.95,NW,318,7.4,8.9,54,0.00,,,0.00,WUHU21623XXSP,2013-02-21 08:38:00,
2013-02-21 03:44:00,27.7,13.1,29.96,North,3,3.4,7.4,54,0.00,,,0.00,WUHU21623XXSP,2013-02-21 08:44:00,
2013-02-21 03:51:00,27.7,13.1,29.95,NW,318,2.0,9.6,54,0.00,,,0.00,WUHU21623XXSP,2013-02-21 08:51:00,
2013-02-21 03:57:00,27.7,13.6,29.95,WNW,296,4.3,4.3,55,0.00,,,0.00,WUHU21623XXSP,2013-02-21 08:57:00,
2013-02-21 04:03:00,27.7,13.6,29.95,West,273,4.5,9.8,55,0.00,,,0.00,WUHU21623XXSP,2013-02-21 09:03:00,
2013-02-21 04:10:00,27.7,13.6,29.95,NW,318,4.0,4.5,55,0.00,,,0.00,WUHU21623XXSP,2013-02-21 09:10:00,
2013-02-21 04:17:00,27.7,13.6,29.95,WNW,296,5.4,5.4,55,0.00,,,0.00,WUHU21623XXSP,2013-02-21 09:17:00,
2013-02-21 04:23:00,27.7,13.6,29.95,NNW,341,3.6,5.4,55,0.00,,,0.00,WUHU21623XXSP,2013-02-21 09:23:00,
2013-02-21 04:29:00,27.9,13.6,29.95,NNW,341,4.7,4.7,55,0.00,,,0.00,WUHU21623XXSP,2013-02-21 09:29:00,
2013-02-21 04:36:00,27.9,13.7,29.96,NW,318,5.1,5.6,55,0.00,,,0.00,WUHU21623XXSP,2013-02-21 09:36:00,
2013-02-21 04:42:00,28.0,13.9,29.96,WNW,296,4.3,5.6,55,0.00,,,0.00,WUHU21623XXSP,2013-02-21 09:42:00,
2013-02-21 04:49:00,28.0,13.9,29.96,NW,318,3.4,5.1,55,0.00,,,0.00,WUHU21623XXSP,2013-02-21 09:49:00,
2013-02-21 04:55:00,28.0,13.9,29.96,WNW,296,8.3,9.4,55,0.00,,,0.00,WUHU21623XXSP,2013-02-21 09:55:00,
2013-02-21 05:01:00,28.2,14.1,29.96,West,273,4.3,9.4,55,0.00,,,0.00,WUHU21623XXSP,2013-02-21 10:01:00,
2013-02-21 05:08:00,28.2,14.1,29.97,NW,318,7.6,10.5,55,0.00,,,0.00,WUHU21623XXSP,2013-02-21 10:08:00,
2013-02-21 05:14:00,28.0,13.9,29.96,West,273,2.5,10.5,55,0.00,,,0.00,WUHU21623XXSP,2013-02-21 10:14:00,
2013-02-21 05:21:00,28.0,13.9,29.96,NNW,341,5.8,6.7,55,0.00,,,0.00,WUHU21623XXSP,2013-02-21 10:21:00,
2013-02-21 05:27:00,28.0,13.9,29.97,NNW,341,4.5,5.8,55,0.00,,,0.00,WUHU21623XXSP,2013-02-21 10:27:00,
2013-02-21 05:34:00,28.0,13.9,29.97,NW,318,8.9,8.9,55,0.00,,,0.00,WUHU21623XXSP,2013-02-21 10:34:00,
2013-02-21 05:40:00,28.0,13.9,29.97,WNW,296,2.7,11.9,55,0.00,,,0.00,WUHU21623XXSP,2013-02-21 10:40:00,
2013-02-21 05:47:00,28.2,14.1,29.97,NNW,341,8.9,11.9,55,0.00,,,0.00,WUHU21623XXSP,2013-02-21 10:47:00,
2013-02-21 05:53:00,28.2,14.1,29.97,NNW,327,7.1,10.7,55,0.00,,,0.00,WUHU21623XXSP,2013-02-21 10:53:00,
2013-02-21 06:00:00,28.2,14.1,29.97,West,273,10.3,10.3,55,0.00,,,0.00,WUHU21623XXSP,2013-02-21 11:00:00,
2013-02-21 06:06:00,28.2,14.1,29.97,WNW,296,7.8,11.4,55,0.00,,,0.00,WUHU21623XXSP,2013-02-21 11:06:00,
2013-02-21 06:12:00,28.2,14.1,29.98,WNW,296,7.6,11.4,55,0.00,,,0.00,WUHU21623XXSP,2013-02-21 11:12:00,
2013-02-21 06:19:00,28.2,14.1,29.98,West,273,4.3,13.0,55,0.00,,,0.00,WUHU21623XXSP,2013-02-21 11:19:00,
2013-02-21 06:25:00,28.2,14.1,29.98,NW,318,4.5,13.0,55,0.00,,,0.00,WUHU21623XXSP,2013-02-21 11:25:00,
2013-02-21 06:31:00,28.2,14.1,29.98,NNW,341,3.6,6.7,55,0.00,,,0.00,WUHU21623XXSP,2013-02-21 11:31:00,
2013-02-21 06:38:00,28.2,14.1,29.98,WNW,296,5.1,5.1,55,0.00,,,0.00,WUHU21623XXSP,2013-02-21 11:38:00,
2013-02-21 06:44:00,28.6,14.4,29.97,NNW,341,8.1,8.1,55,0.00,,,0.00,WUHU21623XXSP,2013-02-21 11:44:00,
2013-02-21 06:51:00,28.6,14.4,29.98,WSW,251,4.7,8.1,55,0.00,,,0.00,WUHU21623XXSP,2013-02-21 11:51:00,
2013-02-21 06:57:00,28.6,14.4,29.98,NNW,341,6.3,7.6,55,0.00,,,0.00,WUHU21623XXSP,2013-02-21 11:57:00,
2013-02-21 07:04:00,28.6,14.4,29.98,West,273,1.6,6.3,55,0.00,,,0.00,WUHU21623XXSP,2013-02-21 12:04:00,
2013-02-21 07:10:00,28.4,13.7,29.98,NW,318,9.2,9.2,54,0.00,,,0.00,WUHU21623XXSP,2013-02-21 12:10:00,
2013-02-21 07:17:00,28.2,13.7,29.99,NNW,341,7.6,9.2,54,0.00,,,0.00,WUHU21623XXSP,2013-02-21 12:17:00,
2013-02-21 07:23:00,28.2,13.7,29.99,NW,318,9.6,11.4,54,0.00,,,0.00,WUHU21623XXSP,2013-02-21 12:23:00,
2013-02-21 07:30:00,28.2,13.7,29.99,NNW,341,3.6,9.6,54,0.00,,,0.00,WUHU21623XXSP,2013-02-21 12:30:00,
2013-02-21 07:36:00,28.2,13.7,29.98,NW,318,17.4,17.4,54,0.00,,,0.00,WUHU21623XXSP,2013-02-21 12:36:00,
2013-02-21 07:42:00,28.2,13.7,29.98,NW,318,4.3,17.4,54,0.00,,,0.00,WUHU21623XXSP,2013-02-21 12:42:00,
2013-02-21 07:49:00,28.6,14.0,29.99,WNW,296,2.5,8.1,54,0.00,,,0.00,WUHU21623XXSP,2013-02-21 12:49:00,
2013-02-21 07:55:00,28.8,14.2,29.98,NW,318,3.8,8.1,54,0.00,,,0.00,WUHU21623XXSP,2013-02-21 12:55:00,
2013-02-21 08:02:00,28.9,14.3,29.97,NW,318,6.0,6.0,54,0.00,,,0.00,WUHU21623XXSP,2013-02-21 13:02:00,
2013-02-21 08:08:00,29.1,14.5,29.98,WNW,296,8.3,8.5,54,0.00,,,0.00,WUHU21623XXSP,2013-02-21 13:08:00,
2013-02-21 08:15:00,29.3,14.3,29.98,WNW,296,6.7,8.5,53,0.00,,,0.00,WUHU21623XXSP,2013-02-21 13:15:00,
2013-02-21 08:21:00,29.3,14.3,29.98,NW,318,9.6,9.6,53,0.00,,,0.00,WUHU21623XXSP,2013-02-21 13:21:00,
2013-02-21 08:28:00,29.3,14.3,29.97,West,273,7.4,9.6,53,0.00,,,0.00,WUHU21623XXSP,2013-02-21 13:28:00,
2013-02-21 08:34:00,29.3,14.3,29.97,NW,318,8.5,16.8,53,0.00,,,0.00,WUHU21623XXSP,2013-02-21 13:34:00,
2013-02-21 08:40:00,29.3,14.3,29.98,NW,318,8.5,8.5,53,0.00,,,0.00,WUHU21623XXSP,2013-02-21 13:40:00,
2013-02-21 08:47:00,29.5,14.3,29.98,WNW,296,13.2,13.2,53,0.00,,,0.00,WUHU21623XXSP,2013-02-21 13:47:00,
2013-02-21 08:53:00,29.5,14.4,29.98,WNW,296,5.1,19.5,53,0.00,,,0.00,WUHU21623XXSP,2013-02-21 13:53:00,
2013-02-21 09:00:00,29.5,14.4,29.98,NW,318,2.5,14.1,53,0.00,,,0.00,WUHU21623XXSP,2013-02-21 14:00:00,
2013-02-21 09:06:00,29.8,14.7,29.98,NW,318,4.7,15.0,53,0.00,,,0.00,WUHU21623XXSP,2013-02-21 14:06:00,
2013-02-21 09:12:00,29.8,14.7,29.98,NNW,341,7.2,7.2,53,0.00,,,0.00,WUHU21623XXSP,2013-02-21 14:12:00,
2013-02-21 09:19:00,30.0,14.9,29.97,NW,318,8.1,17.2,53,0.00,,,0.00,WUHU21623XXSP,2013-02-21 14:19:00,
2013-02-21 09:26:00,30.0,14.9,29.98,WNW,288,9.9,13.4,53,0.00,,,0.00,WUHU21623XXSP,2013-02-21 14:26:00,
2013-02-21 09:32:00,30.6,15.0,29.98,WNW,296,9.8,12.8,52,0.00,,,0.00,WUHU21623XXSP,2013-02-21 14:32:00,
2013-02-21 09:38:00,30.7,15.1,29.97,WNW,296,9.8,9.8,52,0.00,,,0.00,WUHU21623XXSP,2013-02-21 14:38:00,
2013-02-21 09:45:00,31.3,15.6,29.98,NNW,341,13.9,17.2,52,0.00,,,0.00,WUHU21623XXSP,2013-02-21 14:45:00,
2013-02-21 09:51:00,31.8,16.1,29.98,NNW,341,13.4,17.2,52,0.00,,,0.00,WUHU21623XXSP,2013-02-21 14:51:00,
2013-02-21 09:58:00,31.8,16.1,29.97,NNW,341,13.4,13.4,52,0.00,,,0.00,WUHU21623XXSP,2013-02-21 14:58:00,
2013-02-21 10:04:00,32.5,16.4,29.97,WNW,296,11.4,13.4,51,0.00,,,0.00,WUHU21623XXSP,2013-02-21 15:04:00,
2013-02-21 10:11:00,32.7,16.5,29.97,West,273,11.0,13.9,51,0.00,,,0.00,WUHU21623XXSP,2013-02-21 15:11:00,
2013-02-21 10:17:00,33.3,17.0,29.97,North,3,8.9,13.9,51,0.00,,,0.00,WUHU21623XXSP,2013-02-21 15:17:00,
2013-02-21 10:24:00,33.4,16.7,29.97,NW,318,6.3,8.9,50,0.00,,,0.00,WUHU21623XXSP,2013-02-21 15:24:00,
2013-02-21 10:30:00,33.8,17.1,29.96,NW,318,9.8,9.8,50,0.00,,,0.00,WUHU21623XXSP,2013-02-21 15:30:00,
2013-02-21 10:37:00,34.0,17.2,29.97,WSW,251,8.1,16.1,50,0.00,,,0.00,WUHU21623XXSP,2013-02-21 15:37:00,
2013-02-21 10:43:00,34.3,17.1,29.97,NW,318,12.8,12.8,49,0.00,,,0.00,WUHU21623XXSP,2013-02-21 15:43:00,
2013-02-21 10:49:00,34.3,17.1,29.97,NW,318,9.6,12.8,49,0.00,,,0.00,WUHU21623XXSP,2013-02-21 15:49:00,
2013-02-21 10:56:00,34.3,17.1,29.98,NW,318,4.5,10.7,49,0.00,,,0.00,WUHU21623XXSP,2013-02-21 15:56:00,
2013-02-21 11:01:00,34.5,16.8,29.98,WNW,296,7.2,22.8,48,0.00,,,0.00,WUHU21623XXSP,2013-02-21 16:01:00,
2013-02-21 11:07:00,34.9,17.1,29.98,WNW,296,4.3,22.8,48,0.00,,,0.00,WUHU21623XXSP,2013-02-21 16:07:00,
2013-02-21 11:14:00,35.2,17.5,29.98,West,273,11.9,11.9,48,0.00,,,0.00,WUHU21623XXSP,2013-02-21 16:14:00,
2013-02-21 11:20:00,35.2,17.5,29.98,NNW,341,11.9,11.9,49,0.00,,,0.00,WUHU21623XXSP,2013-02-21 16:20:00,
2013-02-21 11:26:00,35.4,18.2,29.99,NNW,341,17.7,17.7,49,0.00,,,0.00,WUHU21623XXSP,2013-02-21 16:26:00,
2013-02-21 11:33:00,35.4,17.6,29.99,NW,318,4.0,17.7,48,0.00,,,0.00,WUHU21623XXSP,2013-02-21 16:33:00,
2013-02-21 11:39:00,35.2,17.6,29.99,NNW,341,6.5,14.5,48,0.00,,,0.00,WUHU21623XXSP,2013-02-21 16:39:00,
2013-02-21 11:46:00,35.2,17.5,29.99,NNW,341,10.5,14.5,48,0.00,,,0.00,WUHU21623XXSP,2013-02-21 16:46:00,
2013-02-21 11:52:00,35.4,17.5,29.98,WNW,296,13.6,13.6,48,0.00,,,0.00,WUHU21623XXSP,2013-02-21 16:52:00,
2013-02-21 11:59:00,35.8,18.0,29.97,NW,318,16.1,16.1,48,0.00,,,0.00,WUHU21623XXSP,2013-02-21 16:59:00,
2013-02-21 12:05:00,36.1,18.1,29.97,NW,318,12.3,16.1,48,0.00,,,0.00,WUHU21623XXSP,2013-02-21 17:05:00,
2013-02-21 12:12:00,36.3,18.5,29.97,NNW,341,7.6,12.3,48,0.00,,,0.00,WUHU21623XXSP,2013-02-21 17:12:00,
2013-02-21 12:18:00,36.7,18.3,29.96,West,273,6.9,18.3,47,0.00,,,0.00,WUHU21623XXSP,2013-02-21 17:18:00,
2013-02-21 12:24:00,37.0,19.1,29.97,NW,318,11.6,18.3,47,0.00,,,0.00,WUHU21623XXSP,2013-02-21 17:24:00,
2013-02-21 12:31:00,37.6,18.9,29.96,NNW,341,4.5,11.6,47,0.00,,,0.00,WUHU21623XXSP,2013-02-21 17:31:00,
2013-02-21 12:37:00,37.9,19.4,29.96,WNW,296,12.8,12.8,47,0.00,,,0.00,WUHU21623XXSP,2013-02-21 17:37:00,
2013-02-21 12:44:00,38.3,19.6,29.96,NNW,341,13.9,13.9,46,0.00,,,0.00,WUHU21623XXSP,2013-02-21 17:44:00,
2013-02-21 12:50:00,38.5,19.4,29.95,West,273,10.3,13.9,46,0.00,,,0.00,WUHU21623XXSP,2013-02-21 17:50:00,
2013-02-21 12:57:00,38.5,19.4,29.95,WNW,296,19.0,19.7,46,0.00,,,0.00,WUHU21623XXSP,2013-02-21 17:57:00,
2013-02-21 13:03:00,38.5,19.4,29.95,NNW,341,7.4,22.6,46,0.00,,,0.00,WUHU21623XXSP,2013-02-21 18:03:00,
2013-02-21 13:10:00,38.3,19.2,29.95,North,3,7.8,22.6,46,0.00,,,0.00,WUHU21623XXSP,2013-02-21 18:10:00,
2013-02-21 13:16:00,37.9,19.0,29.95,North,3,7.8,10.3,46,0.00,,,0.00,WUHU21623XXSP,2013-02-21 18:16:00,
2013-02-21 13:23:00,37.9,18.9,29.96,NNW,341,5.1,7.8,46,0.00,,,0.00,WUHU21623XXSP,2013-02-21 18:23:00,
2013-02-21 13:30:00,37.8,18.7,29.95,NW,318,16.6,16.6,46,0.00,,,0.00,WUHU21623XXSP,2013-02-21 18:30:00,
2013-02-21 13:36:00,37.8,18.7,29.96,North,3,13.6,16.6,46,0.00,,,0.00,WUHU21623XXSP,2013-02-21 18:36:00,
2013-02-21 13:42:00,37.8,18.7,29.96,NNW,341,7.8,16.3,46,0.00,,,0.00,WUHU21623XXSP,2013-02-21 18:42:00,
2013-02-21 13:49:00,37.8,18.7,29.96,WNW,296,11.2,11.2,46,0.00,,,0.00,WUHU21623XXSP,2013-02-21 18:49:00,
2013-02-21 13:55:00,37.8,18.7,29.96,NNW,341,5.6,11.2,46,0.00,,,0.00,WUHU21623XXSP,2013-02-21 18:55:00,
2013-02-21 14:02:00,37.9,18.9,29.97,NNW,341,14.1,14.1,46,0.00,,,0.00,WUHU21623XXSP,2013-02-21 19:02:00,
2013-02-21 14:08:00,37.9,18.9,29.97,NNW,341,11.9,14.1,46,0.00,,,0.00,WUHU21623XXSP,2013-02-21 19:08:00,
2013-02-21 14:14:00,37.9,18.9,29.97,NNW,341,11.2,11.9,46,0.00,,,0.00,WUHU21623XXSP,2013-02-21 19:14:00,
2013-02-21 14:21:00,37.9,18.9,29.96,NW,318,8.9,11.2,46,0.00,,,0.00,WUHU21623XXSP,2013-02-21 19:21:00,
2013-02-21 14:27:00,37.9,18.9,29.96,NW,318,11.6,11.6,46,0.00,,,0.00,WUHU21623XXSP,2013-02-21 19:27:00,
2013-02-21 14:34:00,37.9,18.9,29.96,North,3,6.7,12.8,46,0.00,,,0.00,WUHU21623XXSP,2013-02-21 19:34:00,
2013-02-21 14:40:00,37.9,18.9,29.96,WNW,296,4.3,12.8,46,0.00,,,0.00,WUHU21623XXSP,2013-02-21 19:40:00,
2013-02-21 14:47:00,38.1,19.0,29.96,NW,318,9.2,9.2,46,0.00,,,0.00,WUHU21623XXSP,2013-02-21 19:47:00,
2013-02-21 14:53:00,37.9,19.0,29.95,WNW,296,14.3,14.3,46,0.00,,,0.00,WUHU21623XXSP,2013-02-21 19:53:00,
2013-02-21 15:00:00,38.1,19.0,29.96,West,273,7.2,18.3,46,0.00,,,0.00,WUHU21623XXSP,2013-02-21 20:00:00,
2013-02-21 15:06:00,38.3,19.2,29.97,WNW,296,17.2,18.3,46,0.00,,,0.00,WUHU21623XXSP,2013-02-21 20:06:00,
2013-02-21 15:12:00,38.3,19.2,29.98,NNE,26,7.4,17.2,46,0.00,,,0.00,WUHU21623XXSP,2013-02-21 20:12:00,
2013-02-21 15:19:00,38.3,18.7,29.97,West,273,9.6,12.3,45,0.00,,,0.00,WUHU21623XXSP,2013-02-21 20:19:00,
2013-02-21 15:25:00,38.3,19.2,29.98,NNW,341,7.8,12.3,46,0.00,,,0.00,WUHU21623XXSP,2013-02-21 20:25:00,
2013-02-21 15:32:00,38.5,19.2,29.98,NW,318,11.2,11.2,46,0.00,,,0.00,WUHU21623XXSP,2013-02-21 20:32:00,
2013-02-21 15:38:00,38.5,19.4,29.97,NW,318,9.6,11.2,46,0.00,,,0.00,WUHU21623XXSP,2013-02-21 20:38:00,
2013-02-21 15:45:00,38.8,19.7,29.98,North,3,7.4,9.6,46,0.00,,,0.00,WUHU21623XXSP,2013-02-21 20:45:00,
2013-02-21 15:51:00,38.8,19.7,29.98,North,3,7.8,8.9,46,0.00,,,0.00,WUHU21623XXSP,2013-02-21 20:51:00,
2013-02-21 15:58:00,38.8,19.7,29.99,NNW,341,8.3,11.4,46,0.00,,,0.00,WUHU21623XXSP,2013-02-21 20:58:00,
2013-02-21 16:04:00,38.8,19.7,29.98,NNW,341,7.4,11.4,46,0.00,,,0.00,WUHU21623XXSP,2013-02-21 21:04:00,
2013-02-21 16:10:00,38.5,19.4,29.99,NNW,341,8.9,9.2,46,0.00,,,0.00,WUHU21623XXSP,2013-02-21 21:10:00,
2013-02-21 16:17:00,38.5,19.4,30.00,NNW,341,9.6,17.0,46,0.00,,,0.00,WUHU21623XXSP,2013-02-21 21:17:00,
2013-02-21 16:23:00,38.3,19.2,30.01,NNW,341,6.9,17.0,46,0.00,,,0.00,WUHU21623XXSP,2013-02-21 21:23:00,
2013-02-21 16:30:00,38.1,19.0,30.02,NNE,15,4.5,7.4,46,0.00,,,0.00,WUHU21623XXSP,2013-02-21 21:30:00,
2013-02-21 16:36:00,37.8,18.9,30.03,NNW,341,15.9,15.9,46,0.00,,,0.00,WUHU21623XXSP,2013-02-21 21:36:00,
2013-02-21 16:43:00,37.4,18.6,30.03,WNW,296,6.3,15.9,46,0.00,,,0.00,WUHU21623XXSP,2013-02-21 21:43:00,
2013-02-21 16:49:00,37.2,18.2,30.03,West,273,4.5,11.4,46,0.00,,,0.00,WUHU21623XXSP,2013-02-21 21:49:00,
2013-02-21 16:56:00,36.7,17.7,30.04,NNW,341,12.1,12.1,46,0.00,,,0.00,WUHU21623XXSP,2013-02-21 21:56:00,
2013-02-21 17:02:00,36.5,17.6,30.04,WNW,296,5.6,12.1,46,0.00,,,0.00,WUHU21623XXSP,2013-02-21 22:02:00,
2013-02-21 17:09:00,36.0,17.1,30.04,NW,318,8.5,13.0,46,0.00,,,0.00,WUHU21623XXSP,2013-02-21 22:09:00,
2013-02-21 17:15:00,35.4,17.1,30.04,NNW,341,11.2,12.1,47,0.00,,,0.00,WUHU21623XXSP,2013-02-21 22:15:00,
2013-02-21 17:21:00,35.2,16.9,30.05,NNW,341,21.9,21.9,47,0.00,,,0.00,WUHU21623XXSP,2013-02-21 22:21:00,
2013-02-21 17:28:00,34.7,16.6,30.05,NNW,341,22.4,22.4,47,0.00,,,0.00,WUHU21623XXSP,2013-02-21 22:28:00,
2013-02-21 17:34:00,34.5,16.2,30.06,North,3,6.9,22.4,47,0.00,,,0.00,WUHU21623XXSP,2013-02-21 22:34:00,
2013-02-21 17:41:00,34.3,16.1,30.06,NW,318,6.9,9.8,47,0.00,,,0.00,WUHU21623XXSP,2013-02-21 22:41:00,
2013-02-21 17:47:00,34.3,16.6,30.06,NNW,341,11.9,11.9,48,0.00,,,0.00,WUHU21623XXSP,2013-02-21 22:47:00,
2013-02-21 17:53:00,34.0,16.4,30.06,NNW,327,8.8,11.9,48,0.00,,,0.00,WUHU21623XXSP,2013-02-21 22:53:00,
2013-02-21 18:00:00,33.6,15.9,30.07,NW,318,4.7,15.4,48,0.00,,,0.00,WUHU21623XXSP,2013-02-21 23:00:00,
2013-02-21 18:06:00,33.6,15.9,30.07,NW,318,9.2,9.4,48,0.00,,,0.00,WUHU21623XXSP,2013-02-21 23:06:00,
2013-02-21 18:13:00,33.4,15.7,30.08,WNW,296,13.2,13.2,49,0.00,,,0.00,WUHU21623XXSP,2013-02-21 23:13:00,
2013-02-21 18:20:00,33.3,16.1,30.09,North,3,5.6,13.2,49,0.00,,,0.00,WUHU21623XXSP,2013-02-21 23:20:00,
2013-02-21 18:26:00,33.1,15.9,30.08,North,3,7.4,11.4,49,0.00,,,0.00,WUHU21623XXSP,2013-02-21 23:26:00,
2013-02-21 18:32:00,33.1,15.9,30.07,NW,318,5.8,11.4,49,0.00,,,0.00,WUHU21623XXSP,2013-02-21 23:32:00,
2013-02-21 18:39:00,32.9,16.3,30.09,North,3,14.5,14.5,50,0.00,,,0.00,WUHU21623XXSP,2013-02-21 23:39:00,
2013-02-21 18:45:00,32.7,16.1,30.09,NW,318,8.7,14.5,50,0.00,,,0.00,WUHU21623XXSP,2013-02-21 23:45:00,
2013-02-21 18:52:00,32.7,16.1,30.09,NW,318,6.7,8.7,50,0.00,,,0.00,WUHU21623XXSP,2013-02-21 23:52:00,
2013-02-21 18:58:00,32.5,15.9,30.10,WNW,296,6.9,8.7,50,0.00,,,0.00,WUHU21623XXSP,2013-02-21 23:58:00,
2013-02-21 19:04:00,32.4,15.9,30.10,North,3,10.5,10.5,50,0.00,,,0.00,WUHU21623XXSP,2013-02-22 00:04:00,
2013-02-21 19:11:00,32.2,16.0,30.11,NNW,341,7.8,24.2,51,0.00,,,0.00,WUHU21623XXSP,2013-02-22 00:11:00,
2013-02-21 19:18:00,32.2,16.0,30.12,NW,318,9.6,24.2,51,0.00,,,0.00,WUHU21623XXSP,2013-02-22 00:18:00,
2013-02-21 19:24:00,32.2,16.0,30.14,NW,318,10.7,10.7,51,0.00,,,0.00,WUHU21623XXSP,2013-02-22 00:24:00,
2013-02-21 19:30:00,32.2,16.0,30.14,NNW,341,8.3,10.7,51,0.00,,,0.00,WUHU21623XXSP,2013-02-22 00:30:00,
2013-02-21 19:37:00,32.2,16.0,30.15,North,3,7.4,8.3,51,0.00,,,0.00,WUHU21623XXSP,2013-02-22 00:37:00,
2013-02-21 19:43:00,31.8,16.0,30.15,NNW,341,5.4,7.4,51,0.00,,,0.00,WUHU21623XXSP,2013-02-22 00:43:00,
2013-02-21 19:50:00,31.8,16.1,30.17,NNW,341,8.9,10.7,52,0.00,,,0.00,WUHU21623XXSP,2013-02-22 00:50:00,
2013-02-21 19:56:00,31.6,16.1,30.19,North,3,4.9,13.0,52,0.00,,,0.00,WUHU21623XXSP,2013-02-22 00:56:00,
2013-02-21 20:03:00,31.6,16.0,30.18,North,3,8.3,13.0,52,0.00,,,0.00,WUHU21623XXSP,2013-02-22 01:03:00,
2013-02-21 20:09:00,31.3,15.6,30.18,NNW,341,13.4,13.4,52,0.00,,,0.00,WUHU21623XXSP,2013-02-22 01:09:00,
2013-02-21 20:16:00,31.3,15.6,30.19,North,3,4.7,13.4,52,0.00,,,0.00,WUHU21623XXSP,2013-02-22 01:16:00,
2013-02-21 20:22:00,31.1,15.5,30.20,NNW,341,7.4,13.4,52,0.00,,,0.00,WUHU21623XXSP,2013-02-22 01:22:00,
2013-02-21 20:29:00,31.1,15.5,30.20,NNW,341,3.6,13.4,52,0.00,,,0.00,WUHU21623XXSP,2013-02-22 01:29:00,
2013-02-21 20:35:00,31.1,15.5,30.19,NNW,341,6.3,6.3,52,0.00,,,0.00,WUHU21623XXSP,2013-02-22 01:35:00,
2013-02-21 20:42:00,30.9,15.3,30.20,NNW,341,8.1,12.8,52,0.00,,,0.00,WUHU21623XXSP,2013-02-22 01:42:00,
2013-02-21 20:48:00,30.9,15.3,30.20,NW,318,10.7,10.7,52,0.00,,,0.00,WUHU21623XXSP,2013-02-22 01:48:00,
2013-02-21 20:54:00,30.7,15.1,30.21,NNW,341,4.0,12.5,52,0.00,,,0.00,WUHU21623XXSP,2013-02-22 01:54:00,
2013-02-21 21:01:00,30.7,15.5,30.21,NNW,341,10.7,12.5,53,0.00,,,0.00,WUHU21623XXSP,2013-02-22 02:01:00,
2013-02-21 21:07:00,30.6,15.4,30.22,NNW,341,6.9,10.7,53,0.00,,,0.00,WUHU21623XXSP,2013-02-22 02:07:00,
2013-02-21 21:14:00,30.4,15.2,30.23,NW,318,7.4,12.5,53,0.00,,,0.00,WUHU21623XXSP,2013-02-22 02:14:00,
2013-02-21 21:20:00,30.4,15.2,30.22,NW,318,10.1,15.7,53,0.00,,,0.00,WUHU21623XXSP,2013-02-22 02:20:00,
2013-02-21 21:27:00,30.2,15.1,30.22,NNW,341,5.4,15.7,53,0.00,,,0.00,WUHU21623XXSP,2013-02-22 02:27:00,
2013-02-21 21:33:00,30.0,15.3,30.23,NW,318,6.3,6.3,54,0.00,,,0.00,WUHU21623XXSP,2013-02-22 02:33:00,
2013-02-21 21:40:00,30.0,15.3,30.23,NNW,344,5.4,8.1,54,0.00,,,0.00,WUHU21623XXSP,2013-02-22 02:40:00,
2013-02-21 21:46:00,30.0,15.3,30.23,NNW,341,7.6,7.6,54,0.00,,,0.00,WUHU21623XXSP,2013-02-22 02:46:00,
2013-02-21 21:53:00,30.0,15.3,30.22,NW,318,10.7,10.7,54,0.00,,,0.00,WUHU21623XXSP,2013-02-22 02:53:00,
2013-02-21 21:59:00,30.0,15.3,30.23,North,3,8.1,10.7,54,0.00,,,0.00,WUHU21623XXSP,2013-02-22 02:59:00,
2013-02-21 22:05:00,29.8,15.2,30.23,NNW,341,10.3,10.3,54,0.00,,,0.00,WUHU21623XXSP,2013-02-22 03:05:00,
2013-02-21 22:12:00,29.8,15.2,30.22,NNW,341,12.1,12.1,54,0.00,,,0.00,WUHU21623XXSP,2013-02-22 03:12:00,
2013-02-21 22:18:00,29.7,15.4,30.23,NNW,341,6.0,12.1,55,0.00,,,0.00,WUHU21623XXSP,2013-02-22 03:18:00,
2013-02-21 22:25:00,29.5,15.2,30.23,North,3,4.9,9.6,55,0.00,,,0.00,WUHU21623XXSP,2013-02-22 03:25:00,
2013-02-21 22:31:00,29.5,15.2,30.24,North,3,6.5,6.7,55,0.00,,,0.00,WUHU21623XXSP,2013-02-22 03:31:00,
2013-02-21 22:37:00,29.7,15.4,30.24,North,3,4.7,14.3,55,0.00,,,0.00,WUHU21623XXSP,2013-02-22 03:37:00,
2013-02-21 22:44:00,29.7,15.4,30.24,North,3,8.1,8.1,55,0.00,,,0.00,WUHU21623XXSP,2013-02-22 03:44:00,
2013-02-21 22:51:00,29.7,15.4,30.24,North,3,3.6,8.1,56,0.00,,,0.00,WUHU21623XXSP,2013-02-22 03:51:00,
2013-02-21 22:57:00,29.7,15.8,30.25,NW,318,4.5,6.7,56,0.00,,,0.00,WUHU21623XXSP,2013-02-22 03:57:00,
2013-02-21 23:04:00,29.8,16.0,30.25,NNW,341,3.6,6.7,56,0.00,,,0.00,WUHU21623XXSP,2013-02-22 04:04:00,
2013-02-21 23:10:00,29.8,16.0,30.25,North,3,5.8,6.5,56,0.00,,,0.00,WUHU21623XXSP,2013-02-22 04:10:00,
2013-02-21 23:16:00,29.8,16.0,30.25,NNW,341,6.7,6.7,56,0.00,,,0.00,WUHU21623XXSP,2013-02-22 04:16:00,
2013-02-21 23:23:00,29.7,15.8,30.25,North,3,5.6,6.7,56,0.00,,,0.00,WUHU21623XXSP,2013-02-22 04:23:00,
2013-02-21 23:29:00,29.7,15.8,30.25,NNW,341,4.7,5.6,56,0.00,,,0.00,WUHU21623XXSP,2013-02-22 04:29:00,
2013-02-21 23:36:00,29.7,15.8,30.25,North,3,5.1,5.6,56,0.00,,,0.00,WUHU21623XXSP,2013-02-22 04:36:00,
2013-02-21 23:42:00,29.7,15.8,30.26,NNW,341,3.6,5.1,56,0.00,,,0.00,WUHU21623XXSP,2013-02-22 04:42:00,
2013-02-21 23:48:00,29.8,16.0,30.25,North,3,5.1,6.5,56,0.00,,,0.00,WUHU21623XXSP,2013-02-22 04:48:00,
2013-02-21 23:55:00,30.0,16.0,30.25,North,3,5.6,6.5,56,0.00,,,0.00,WUHU21623XXSP,2013-02-22 04:55:00,